createdAt,value
2018-08-22T00:00:55.137Z,99.90
2018-08-22T00:03:25.666Z,99.90
2018-08-22T00:05:56.135Z,99.90
2018-08-22T00:08:31.731Z,99.90
2018-08-22T00:11:02.036Z,99.90
2018-08-22T00:13:32.280Z,99.90
2018-08-22T00:16:02.817Z,99.90
2018-08-22T00:18:33.150Z,99.90
2018-08-22T00:21:03.568Z,99.90
2018-08-22T00:23:34.106Z,99.90
2018-08-22T00:26:04.823Z,99.90
2018-08-22T00:28:35.274Z,99.90
2018-08-22T00:31:05.781Z,99.90
2018-08-22T00:33:36.306Z,99.90
2018-08-22T00:36:06.573Z,99.90
2018-08-22T00:38:37.126Z,99.90
2018-08-22T00:41:07.643Z,99.90
2018-08-22T00:43:37.992Z,99.90
2018-08-22T00:46:08.634Z,99.90
2018-08-22T00:48:38.916Z,99.90
2018-08-22T00:51:09.394Z,99.90
2018-08-22T00:53:39.575Z,99.90
2018-08-22T00:56:09.808Z,99.90
2018-08-22T00:58:40.247Z,99.90
2018-08-22T01:01:10.784Z,99.90
2018-08-22T01:03:41.219Z,99.90
2018-08-22T01:06:11.545Z,99.90
2018-08-22T01:08:41.884Z,99.90
2018-08-22T01:11:12.323Z,99.90
2018-08-22T01:13:42.684Z,99.90
2018-08-22T01:16:13.330Z,99.90
2018-08-22T01:18:43.770Z,99.90
2018-08-22T01:21:14.193Z,99.90
2018-08-22T01:23:44.851Z,99.90
2018-08-22T01:26:15.476Z,99.90
2018-08-22T01:28:46.219Z,99.90
2018-08-22T01:31:16.665Z,99.90
2018-08-22T01:33:47.303Z,99.90
2018-08-22T01:36:17.846Z,99.90
2018-08-22T01:38:48.202Z,99.90
2018-08-22T01:41:18.782Z,99.90
2018-08-22T01:43:49.298Z,99.90
2018-08-22T01:46:19.866Z,99.90
2018-08-22T01:48:49.932Z,99.90
2018-08-22T01:51:20.367Z,99.90
2018-08-22T01:53:50.846Z,99.90
2018-08-22T01:56:21.121Z,99.90
2018-08-22T01:58:51.490Z,99.90
2018-08-22T02:01:21.690Z,99.90
2018-08-22T02:03:52.354Z,99.90
2018-08-22T02:06:22.735Z,99.90
2018-08-22T02:08:53.248Z,99.90
2018-08-22T02:11:23.623Z,99.90
2018-08-22T02:13:53.782Z,99.90
2018-08-22T02:16:24.234Z,99.90
2018-08-22T02:18:54.523Z,99.90
2018-08-22T02:21:25.934Z,99.90
2018-08-22T02:23:56.307Z,99.90
2018-08-22T02:26:26.606Z,99.90
2018-08-22T02:28:56.643Z,99.90
2018-08-22T02:31:26.938Z,99.90
2018-08-22T02:33:57.319Z,99.90
2018-08-22T02:36:27.655Z,99.90
2018-08-22T02:38:57.915Z,99.90
2018-08-22T02:41:28.018Z,99.90
2018-08-22T02:43:58.300Z,99.90
2018-08-22T02:46:28.851Z,99.90
2018-08-22T02:48:59.347Z,99.90
2018-08-22T02:51:29.937Z,99.90
2018-08-22T02:54:00.339Z,99.90
2018-08-22T02:56:30.727Z,99.90
2018-08-22T02:59:01.046Z,99.90
2018-08-22T03:01:31.482Z,99.90
2018-08-22T03:04:01.900Z,99.90
2018-08-22T03:06:32.575Z,99.90
2018-08-22T03:09:02.991Z,99.90
2018-08-22T03:11:33.508Z,99.90
2018-08-22T03:14:03.927Z,99.90
2018-08-22T03:16:34.359Z,99.90
2018-08-22T03:19:04.651Z,99.90
2018-08-22T03:21:35.056Z,99.90
2018-08-22T03:24:05.317Z,99.90
2018-08-22T03:26:35.697Z,99.90
2018-08-22T03:29:06.042Z,99.90
2018-08-22T03:31:36.471Z,99.90
2018-08-22T03:34:07.147Z,99.90
2018-08-22T03:36:37.311Z,99.90
2018-08-22T03:39:09.083Z,99.90
2018-08-22T03:41:39.789Z,99.90
2018-08-22T03:44:10.145Z,99.90
2018-08-22T03:46:40.799Z,99.90
2018-08-22T03:49:11.276Z,99.90
2018-08-22T03:51:41.823Z,99.90
2018-08-22T03:54:12.259Z,99.90
2018-08-22T03:56:42.631Z,99.90
2018-08-22T03:59:13.266Z,99.90
2018-08-22T04:01:43.763Z,99.90
2018-08-22T04:04:14.105Z,99.90
2018-08-22T04:06:44.368Z,99.90
2018-08-22T04:09:14.811Z,99.90
2018-08-22T04:11:45.386Z,99.90
2018-08-22T04:14:17.359Z,99.90
2018-08-22T04:16:47.814Z,99.90
2018-08-22T04:19:18.279Z,99.90
2018-08-22T04:21:48.854Z,99.90
2018-08-22T04:24:19.238Z,99.90
2018-08-22T04:26:49.635Z,99.90
2018-08-22T04:29:19.979Z,99.90
2018-08-22T04:31:50.446Z,99.90
2018-08-22T04:34:20.806Z,99.90
2018-08-22T04:36:51.200Z,99.90
2018-08-22T04:39:21.775Z,99.90
2018-08-22T04:41:52.216Z,99.90
2018-08-22T04:44:22.580Z,99.90
2018-08-22T04:46:53.131Z,99.90
2018-08-22T04:49:23.443Z,99.90
2018-08-22T04:51:53.886Z,99.90
2018-08-22T04:54:24.375Z,99.90
2018-08-22T04:56:54.628Z,99.90
2018-08-22T04:59:24.915Z,99.90
2018-08-22T05:01:55.359Z,99.90
2018-08-22T05:04:25.946Z,99.90
2018-08-22T05:06:56.720Z,99.90
2018-08-22T05:09:27.061Z,99.90
2018-08-22T05:11:57.535Z,99.90
2018-08-22T05:14:27.856Z,99.90
2018-08-22T05:16:58.261Z,99.90
2018-08-22T05:19:28.565Z,99.90
2018-08-22T05:21:58.888Z,99.90
2018-08-22T05:24:29.328Z,99.90
2018-08-22T05:26:59.639Z,99.90
2018-08-22T05:29:30.056Z,99.90
2018-08-22T05:32:00.531Z,99.90
2018-08-22T05:34:30.815Z,99.90
2018-08-22T05:37:01.479Z,99.90
2018-08-22T05:39:32.169Z,99.90
2018-08-22T05:42:02.535Z,99.90
2018-08-22T05:44:33.078Z,99.90
2018-08-22T05:47:03.631Z,99.90
2018-08-22T05:49:33.988Z,99.90
2018-08-22T05:52:04.584Z,99.90
2018-08-22T05:54:35.015Z,99.90
2018-08-22T05:57:05.351Z,99.90
2018-08-22T05:59:35.746Z,99.90
2018-08-22T06:02:06.383Z,99.90
2018-08-22T06:04:36.990Z,99.90
2018-08-22T06:07:07.636Z,99.90
2018-08-22T06:09:38.102Z,99.90
2018-08-22T06:12:21.697Z,99.90
2018-08-22T06:14:52.211Z,99.90
2018-08-22T06:17:22.782Z,97.20
2018-08-22T06:19:53.186Z,94.20
2018-08-22T06:22:23.591Z,91.70
2018-08-22T06:24:53.957Z,82.90
2018-08-22T06:27:24.591Z,76.00
2018-08-22T06:29:54.934Z,73.60
2018-08-22T06:32:25.834Z,73.30
2018-08-22T06:34:56.159Z,70.00
2018-08-22T06:37:26.510Z,69.10
2018-08-22T06:39:56.919Z,70.30
2018-08-22T06:42:27.392Z,70.60
2018-08-22T06:44:57.909Z,73.20
2018-08-22T06:47:28.388Z,75.70
2018-08-22T06:49:58.869Z,71.80
2018-08-22T06:52:29.378Z,68.10
2018-08-22T06:54:59.764Z,67.20
2018-08-22T06:57:30.191Z,70.10
2018-08-22T07:00:00.680Z,66.40
2018-08-22T07:02:31.306Z,64.00
2018-08-22T07:05:01.719Z,64.50
2018-08-22T07:07:32.132Z,66.20
2018-08-22T07:10:02.563Z,64.70
2018-08-22T07:12:33.159Z,59.50
2018-08-22T07:15:03.776Z,57.20
2018-08-22T07:17:34.164Z,58.20
2018-08-22T07:20:04.555Z,58.10
2018-08-22T07:22:34.897Z,58.20
2018-08-22T07:25:05.253Z,56.30
2018-08-22T07:27:35.559Z,54.70
2018-08-22T07:30:06.377Z,54.30
2018-08-22T07:32:36.634Z,54.70
2018-08-22T07:35:07.349Z,54.80
2018-08-22T07:37:37.811Z,56.50
2018-08-22T07:40:08.090Z,55.70
2018-08-22T07:42:38.386Z,53.50
2018-08-22T07:45:08.866Z,51.80
2018-08-22T07:47:39.494Z,52.70
2018-08-22T07:50:09.921Z,52.00
2018-08-22T07:52:49.393Z,54.30
2018-08-22T07:55:20.019Z,56.40
2018-08-22T07:57:51.983Z,59.10
2018-08-22T08:00:22.360Z,56.70
2018-08-22T08:02:57.047Z,56.30
2018-08-22T08:05:28.125Z,56.40
2018-08-22T08:07:59.575Z,56.40
2018-08-22T08:10:32.425Z,54.30
2018-08-22T08:13:03.439Z,56.70
2018-08-22T08:15:35.014Z,56.20
2018-08-22T08:18:05.623Z,55.00
2018-08-22T08:20:36.111Z,54.80
2018-08-22T08:23:06.728Z,53.50
2018-08-22T08:25:37.095Z,53.40
2018-08-22T08:28:07.723Z,53.30
2018-08-22T08:30:38.158Z,54.00
2018-08-22T08:33:08.518Z,55.30
2018-08-22T08:35:38.847Z,51.90
2018-08-22T08:38:09.259Z,51.50
2018-08-22T08:40:39.427Z,51.90
2018-08-22T08:43:09.870Z,52.70
2018-08-22T08:45:41.511Z,54.50
2018-08-22T08:48:11.958Z,54.70
2018-08-22T08:50:43.074Z,54.10
2018-08-22T08:53:13.776Z,52.20
2018-08-22T08:55:44.295Z,51.00
2018-08-22T08:58:14.946Z,52.30
2018-08-22T09:00:45.424Z,50.60
2018-08-22T09:03:15.910Z,49.80
2018-08-22T09:05:46.455Z,50.70
2018-08-22T09:08:17.073Z,50.20
2018-08-22T09:10:47.569Z,49.40
2018-08-22T09:13:17.882Z,48.30
2018-08-22T09:15:48.364Z,49.90
2018-08-22T09:18:18.732Z,50.10
2018-08-22T09:20:49.219Z,47.70
2018-08-22T09:23:29.117Z,48.00
2018-08-22T09:25:59.418Z,50.20
2018-08-22T09:28:29.901Z,50.00
2018-08-22T09:31:00.217Z,48.80
2018-08-22T09:33:30.600Z,46.30
2018-08-22T09:36:00.838Z,46.20
2018-08-22T09:38:31.239Z,50.00
2018-08-22T09:41:01.415Z,48.80
2018-08-22T09:43:31.688Z,49.60
2018-08-22T09:46:02.030Z,50.60
2018-08-22T09:48:32.267Z,48.50
2018-08-22T09:51:02.695Z,46.20
2018-08-22T09:53:33.015Z,46.60
2018-08-22T09:56:03.304Z,49.50
2018-08-22T09:58:33.519Z,50.10
2018-08-22T10:01:08.982Z,50.20
2018-08-22T10:03:53.127Z,50.80
2018-08-22T10:06:30.800Z,47.60
2018-08-22T10:09:05.238Z,45.30
2018-08-22T10:11:35.467Z,47.60
2018-08-22T10:14:06.086Z,47.50
2018-08-22T10:16:36.407Z,44.50
2018-08-22T10:19:07.240Z,46.30
2018-08-22T10:21:37.604Z,46.60
2018-08-22T10:24:19.638Z,47.30
2018-08-22T10:26:50.089Z,48.20
2018-08-22T10:29:20.470Z,46.80
2018-08-22T10:31:50.768Z,45.50
2018-08-22T10:34:20.975Z,44.20
2018-08-22T10:36:51.266Z,42.50
2018-08-22T10:39:21.496Z,43.00
2018-08-22T10:41:51.807Z,42.50
2018-08-22T10:44:22.317Z,41.90
2018-08-22T10:47:00.141Z,41.00
2018-08-22T10:49:30.615Z,41.10
2018-08-22T10:52:00.747Z,42.70
2018-08-22T10:54:31.150Z,43.60
2018-08-22T10:57:01.606Z,41.40
2018-08-22T10:59:31.875Z,42.50
2018-08-22T11:02:02.297Z,41.80
2018-08-22T11:04:33.905Z,41.80
2018-08-22T11:07:04.230Z,39.70
2018-08-22T11:09:34.486Z,37.00
2018-08-22T11:12:04.927Z,35.90
2018-08-22T11:14:35.331Z,35.60
2018-08-22T11:17:16.571Z,35.70
2018-08-22T11:19:47.346Z,36.10
2018-08-22T11:22:34.142Z,38.70
2018-08-22T11:25:20.888Z,35.60
2018-08-22T11:28:07.210Z,33.90
2018-08-22T11:30:53.890Z,37.00
2018-08-22T11:33:41.432Z,37.40
2018-08-22T11:36:09.551Z,36.60
2018-08-22T11:38:39.851Z,36.40
2018-08-22T11:41:10.196Z,36.70
2018-08-22T11:43:41.004Z,33.80
2018-08-22T11:46:11.270Z,31.70
2018-08-22T11:48:41.546Z,30.60
2018-08-22T11:51:11.979Z,30.30
2018-08-22T11:53:42.297Z,31.20
2018-08-22T11:56:12.827Z,30.40
2018-08-22T11:58:43.743Z,29.50
2018-08-22T12:01:14.502Z,29.30
2018-08-22T12:03:44.617Z,30.00
2018-08-22T12:06:14.908Z,30.30
2018-08-22T12:08:44.841Z,29.80
2018-08-22T12:11:15.039Z,30.60
2018-08-22T12:13:45.090Z,29.90
2018-08-22T12:16:15.135Z,28.50
2018-08-22T12:18:45.425Z,29.00
2018-08-22T12:21:15.993Z,27.90
2018-08-22T12:23:46.247Z,27.50
2018-08-22T12:26:16.878Z,26.00
2018-08-22T12:28:47.226Z,26.40
2018-08-22T12:31:17.703Z,26.70
2018-08-22T12:33:48.957Z,26.60
2018-08-22T12:36:19.846Z,26.70
2018-08-22T12:38:50.669Z,27.80
2018-08-22T12:41:22.200Z,27.50
2018-08-22T12:43:52.864Z,27.50
2018-08-22T12:46:24.049Z,27.10
2018-08-22T12:48:55.175Z,27.40
2018-08-22T12:51:29.956Z,26.40
2018-08-22T12:54:00.943Z,26.10
2018-08-22T12:56:31.567Z,26.50
2018-08-22T12:59:02.394Z,26.40
2018-08-22T13:01:32.875Z,26.60
2018-08-22T13:04:06.165Z,26.20
2018-08-22T13:06:36.811Z,25.80
2018-08-22T13:09:12.271Z,25.50
2018-08-22T13:11:58.703Z,26.00
2018-08-22T13:14:29.139Z,25.50
2018-08-22T13:17:02.825Z,25.50
2018-08-22T13:19:34.252Z,25.30
2018-08-22T13:22:05.267Z,24.80
2018-08-22T13:24:38.930Z,24.40
2018-08-22T13:27:11.526Z,23.90
2018-08-22T13:29:42.769Z,24.40
2018-08-22T13:32:13.275Z,23.60
2018-08-22T13:34:43.898Z,23.60
2018-08-22T13:37:14.276Z,23.80
2018-08-22T13:39:44.575Z,23.10
2018-08-22T13:42:14.732Z,23.40
2018-08-22T13:44:45.186Z,22.80
2018-08-22T13:47:15.395Z,22.70
2018-08-22T13:49:46.310Z,22.90
2018-08-22T13:52:16.917Z,22.90
2018-08-22T13:54:54.906Z,22.80
2018-08-22T13:57:25.507Z,21.90
2018-08-22T13:59:56.007Z,21.80
2018-08-22T14:02:26.570Z,22.00
2018-08-22T14:04:56.853Z,21.30
2018-08-22T14:07:27.191Z,21.40
2018-08-22T14:09:57.093Z,22.00
2018-08-22T14:12:27.721Z,22.10
2018-08-22T14:14:58.611Z,21.40
2018-08-22T14:17:29.001Z,21.90
2018-08-22T14:19:59.347Z,22.40
2018-08-22T14:22:30.422Z,22.20
2018-08-22T14:25:00.857Z,22.60
2018-08-22T14:27:31.503Z,23.50
2018-08-22T14:30:02.248Z,23.60
2018-08-22T14:32:32.484Z,23.20
2018-08-22T14:35:02.842Z,23.20
2018-08-22T14:37:34.651Z,23.00
2018-08-22T14:40:05.304Z,23.00
2018-08-22T14:42:35.392Z,22.90
2018-08-22T14:45:05.818Z,23.30
2018-08-22T14:47:35.808Z,23.50
2018-08-22T14:50:06.475Z,23.50
2018-08-22T14:52:37.257Z,23.40
2018-08-22T14:55:07.848Z,23.10
2018-08-22T14:57:38.640Z,22.70
2018-08-22T15:00:09.637Z,22.50
2018-08-22T15:02:39.868Z,23.50
2018-08-22T15:05:11.178Z,23.60
2018-08-22T15:07:41.562Z,23.60
2018-08-22T15:10:15.419Z,23.60
2018-08-22T15:12:46.982Z,23.20
2018-08-22T15:15:17.436Z,22.80
2018-08-22T15:17:48.082Z,22.40
2018-08-22T15:20:18.704Z,23.10
2018-08-22T15:22:50.796Z,23.40
2018-08-22T15:25:20.927Z,23.20
2018-08-22T15:27:51.855Z,22.60
2018-08-22T15:30:22.422Z,23.10
2018-08-22T15:32:52.859Z,23.90
2018-08-22T15:35:23.480Z,24.20
2018-08-22T15:37:54.106Z,23.90
2018-08-22T15:40:24.592Z,23.80
2018-08-22T15:42:54.922Z,23.40
2018-08-22T15:45:25.449Z,23.30
2018-08-22T15:48:09.070Z,23.90
2018-08-22T15:50:39.524Z,23.30
2018-08-22T15:53:09.934Z,23.90
2018-08-22T15:55:40.430Z,23.20
2018-08-22T15:58:11.115Z,23.50
2018-08-22T16:00:43.927Z,23.50
2018-08-22T16:03:14.311Z,24.00
2018-08-22T16:05:45.734Z,23.80
2018-08-22T16:08:20.552Z,23.90
2018-08-22T16:10:50.895Z,23.60
2018-08-22T16:13:26.258Z,23.70
2018-08-22T16:15:57.605Z,24.10
2018-08-22T16:18:28.293Z,24.10
2018-08-22T16:21:00.099Z,23.20
2018-08-22T16:23:32.794Z,22.50
2018-08-22T16:26:04.275Z,22.70
2018-08-22T16:28:54.744Z,23.00
2018-08-22T16:31:35.018Z,22.30
2018-08-22T16:34:05.747Z,22.30
2018-08-22T16:36:36.135Z,22.30
2018-08-22T16:39:07.798Z,23.10
2018-08-22T16:41:37.958Z,23.60
2018-08-22T16:44:08.623Z,23.50
2018-08-22T16:46:38.897Z,23.70
2018-08-22T16:49:09.119Z,23.20
2018-08-22T16:51:39.639Z,23.60
2018-08-22T16:54:10.774Z,24.50
2018-08-22T16:56:40.954Z,24.80
2018-08-22T16:59:12.646Z,25.30
2018-08-22T17:01:46.803Z,25.40
2018-08-22T17:04:17.608Z,25.20
2018-08-22T17:06:48.278Z,25.40
2018-08-22T17:09:19.004Z,26.00
2018-08-22T17:11:49.208Z,25.50
2018-08-22T17:14:19.609Z,25.70
2018-08-22T17:16:50.444Z,26.90
2018-08-22T17:19:20.930Z,27.90
2018-08-22T17:21:51.757Z,29.10
2018-08-22T17:24:31.756Z,29.90
2018-08-22T17:27:02.688Z,30.80
2018-08-22T17:29:33.377Z,32.40
2018-08-22T17:32:05.764Z,33.70
2018-08-22T17:34:36.192Z,36.20
2018-08-22T17:37:10.119Z,36.90
2018-08-22T17:39:40.471Z,38.10
2018-08-22T17:42:18.265Z,40.40
2018-08-22T17:44:48.860Z,42.00
2018-08-22T17:47:20.427Z,42.00
2018-08-22T17:50:08.587Z,42.70
2018-08-22T17:52:38.973Z,43.20
2018-08-22T17:55:09.388Z,43.90
2018-08-22T17:57:39.720Z,44.20
2018-08-22T18:00:09.986Z,44.40
2018-08-22T18:02:40.593Z,45.40
2018-08-22T18:05:10.950Z,46.10
2018-08-22T18:07:41.456Z,46.30
2018-08-22T18:10:11.856Z,47.30
2018-08-22T18:12:42.348Z,46.90
2018-08-22T18:15:12.587Z,47.40
2018-08-22T18:17:42.967Z,47.90
2018-08-22T18:20:13.263Z,47.80
2018-08-22T18:22:44.019Z,48.20
2018-08-22T18:25:14.533Z,49.10
2018-08-22T18:27:46.247Z,49.10
2018-08-22T18:30:18.800Z,49.40
2018-08-22T18:32:49.222Z,49.70
2018-08-22T18:35:19.636Z,50.20
2018-08-22T18:37:50.173Z,50.60
2018-08-22T18:40:22.257Z,51.00
2018-08-22T18:42:55.498Z,51.80
2018-08-22T18:45:26.874Z,52.70
2018-08-22T18:47:57.323Z,53.00
2018-08-22T18:50:27.714Z,53.60
2018-08-22T18:53:00.102Z,53.50
2018-08-22T18:55:32.187Z,52.90
2018-08-22T18:58:04.008Z,53.50
2018-08-22T19:00:38.981Z,53.90
2018-08-22T19:03:09.507Z,53.80
2018-08-22T19:05:39.970Z,53.50
2018-08-22T19:08:14.691Z,53.50
2018-08-22T19:10:46.370Z,53.70
2018-08-22T19:13:17.984Z,54.60
2018-08-22T19:15:54.710Z,55.20
2018-08-22T19:18:25.167Z,55.00
2018-08-22T19:20:58.628Z,56.80
2018-08-22T19:23:29.453Z,57.30
2018-08-22T19:26:00.885Z,57.80
2018-08-22T19:28:49.706Z,58.30
2018-08-22T19:31:20.401Z,58.10
2018-08-22T19:33:51.190Z,58.20
2018-08-22T19:36:21.728Z,58.70
2018-08-22T19:38:57.863Z,59.80
2018-08-22T19:41:33.104Z,59.80
2018-08-22T19:44:04.858Z,60.60
2018-08-22T19:46:42.411Z,60.00
2018-08-22T19:49:12.804Z,60.60
2018-08-22T19:51:43.427Z,61.40
2018-08-22T19:54:14.094Z,62.50
2018-08-22T19:56:44.770Z,64.30
2018-08-22T19:59:16.777Z,65.50
2018-08-22T20:01:47.407Z,65.50
2018-08-22T20:04:17.952Z,66.60
2018-08-22T20:06:48.367Z,67.30
2018-08-22T20:09:18.874Z,68.20
2018-08-22T20:11:49.253Z,70.10
2018-08-22T20:14:31.863Z,71.70
2018-08-22T20:17:02.378Z,73.50
2018-08-22T20:19:36.752Z,75.10
2018-08-22T20:22:08.916Z,77.20
2018-08-22T20:24:39.412Z,80.20
2018-08-22T20:27:10.138Z,80.40
2018-08-22T20:29:40.823Z,83.00
2018-08-22T20:32:16.181Z,84.20
2018-08-22T20:34:46.886Z,86.60
2018-08-22T20:37:17.482Z,90.20
2018-08-22T20:39:51.908Z,91.50
2018-08-22T20:42:22.547Z,93.00
2018-08-22T20:44:52.893Z,94.30
2018-08-22T20:47:23.177Z,95.40
2018-08-22T20:49:54.199Z,96.90
2018-08-22T20:52:24.536Z,98.10
2018-08-22T20:54:59.693Z,98.80
2018-08-22T20:57:30.112Z,99.70
2018-08-22T21:00:00.479Z,99.90
2018-08-22T21:02:30.944Z,99.90
2018-08-22T21:05:01.481Z,99.90
2018-08-22T21:07:43.144Z,99.90
2018-08-22T21:10:13.824Z,99.90
2018-08-22T21:12:44.304Z,99.90
2018-08-22T21:15:21.098Z,99.90
2018-08-22T21:17:51.283Z,99.90
2018-08-22T21:20:24.695Z,99.90
2018-08-22T21:23:01.386Z,99.90
2018-08-22T21:25:31.906Z,99.90
2018-08-22T21:28:10.219Z,99.90
2018-08-22T21:30:45.432Z,99.90
2018-08-22T21:33:17.868Z,99.90
2018-08-22T21:35:48.325Z,99.90
2018-08-22T21:38:18.780Z,99.90
2018-08-22T21:40:49.187Z,99.90
2018-08-22T21:43:19.895Z,99.90
2018-08-22T21:45:54.225Z,99.90
2018-08-22T21:48:26.543Z,99.90
2018-08-22T21:50:57.047Z,99.90
2018-08-22T21:53:28.263Z,99.90
2018-08-22T21:56:00.256Z,99.90
2018-08-22T21:58:31.246Z,99.90
2018-08-22T22:01:02.895Z,99.90
2018-08-22T22:03:33.376Z,99.90
2018-08-22T22:06:04.808Z,99.90
2018-08-22T22:08:35.024Z,99.90
2018-08-22T22:11:06.990Z,99.90
2018-08-22T22:13:41.717Z,99.90
2018-08-22T22:16:12.006Z,99.90
2018-08-22T22:18:42.322Z,99.90
2018-08-22T22:21:16.134Z,99.90
2018-08-22T22:23:47.907Z,99.90
2018-08-22T22:26:23.003Z,99.90
2018-08-22T22:28:54.530Z,99.90
2018-08-22T22:31:43.235Z,99.90
2018-08-22T22:34:13.825Z,99.90
2018-08-22T22:36:44.214Z,99.90
2018-08-22T22:39:46.922Z,99.90
2018-08-22T22:42:28.051Z,99.90
2018-08-22T22:44:59.696Z,99.90
2018-08-22T22:47:32.351Z,99.90
2018-08-22T22:50:03.603Z,99.90
2018-08-22T22:52:41.218Z,99.90
2018-08-22T22:55:12.319Z,99.90
2018-08-22T22:57:44.255Z,99.90
2018-08-22T23:00:17.072Z,99.90
2018-08-22T23:02:53.332Z,99.90
2018-08-22T23:05:27.885Z,99.90
2018-08-22T23:08:04.439Z,99.90
2018-08-22T23:10:35.531Z,99.90
2018-08-22T23:13:06.080Z,99.90
2018-08-22T23:15:37.894Z,99.90
2018-08-22T23:18:09.149Z,99.90
2018-08-22T23:20:42.139Z,99.90
2018-08-22T23:23:33.843Z,99.90
2018-08-22T23:26:12.120Z,99.90
2018-08-22T23:28:47.551Z,99.90
2018-08-22T23:31:19.907Z,99.90
2018-08-22T23:33:50.373Z,99.90
2018-08-22T23:36:20.871Z,99.90
2018-08-22T23:38:58.299Z,99.90
2018-08-22T23:41:29.033Z,99.90
2018-08-22T23:43:59.855Z,99.90
2018-08-22T23:46:31.043Z,99.90
2018-08-22T23:49:01.899Z,99.90
2018-08-22T23:51:33.041Z,99.90
2018-08-22T23:54:04.745Z,99.90
2018-08-22T23:56:35.243Z,99.60
2018-08-22T23:59:05.668Z,98.40
